createdAt,value
2023-02-11T00:00:31.518Z,37
2023-02-11T00:01:31.523Z,36
2023-02-11T00:02:31.591Z,35
2023-02-11T00:03:31.632Z,37
2023-02-11T00:04:31.569Z,37
2023-02-11T00:05:31.530Z,42
2023-02-11T00:06:31.517Z,38
2023-02-11T00:07:31.561Z,33
2023-02-11T00:09:31.980Z,31
2023-02-11T00:10:31.570Z,35
2023-02-11T00:11:31.581Z,34
2023-02-11T00:12:31.631Z,32
2023-02-11T00:13:31.566Z,33
2023-02-11T00:14:31.576Z,37
2023-02-11T00:15:31.577Z,31
2023-02-11T00:16:31.645Z,33
2023-02-11T00:17:31.627Z,35
2023-02-11T00:19:31.570Z,30
2023-02-11T00:20:31.568Z,35
2023-02-11T00:21:31.586Z,34
2023-02-11T00:22:31.613Z,33
2023-02-11T00:23:31.568Z,33
2023-02-11T00:24:31.567Z,30
2023-02-11T00:25:31.657Z,32
2023-02-11T00:26:31.657Z,32
2023-02-11T00:29:31.704Z,35
2023-02-11T00:30:31.689Z,30
2023-02-11T00:31:31.834Z,32
2023-02-11T00:32:31.676Z,33
2023-02-11T00:33:31.653Z,30
2023-02-11T00:34:31.661Z,36
2023-02-11T00:35:32.049Z,33
2023-02-11T00:36:31.699Z,34
2023-02-11T00:37:31.659Z,32
2023-02-11T00:38:31.655Z,31
2023-02-11T00:40:31.653Z,33
2023-02-11T00:41:31.877Z,32
2023-02-11T00:42:45.974Z,32
2023-02-11T00:44:00.135Z,30
2023-02-11T00:47:42.465Z,31
2023-02-11T00:48:56.584Z,31
2023-02-11T00:50:10.721Z,29
2023-02-11T00:50:47.768Z,29
2023-02-11T00:52:38.961Z,31
2023-02-11T00:53:53.077Z,31
2023-02-11T00:55:43.955Z,33
2023-02-11T00:57:31.526Z,29
2023-02-11T00:58:31.522Z,28
2023-02-11T00:59:31.527Z,29
2023-02-11T01:00:31.520Z,29
2023-02-11T01:01:31.661Z,32
2023-02-11T01:02:31.550Z,31
2023-02-11T01:03:31.526Z,27
2023-02-11T01:04:31.534Z,30
2023-02-11T01:05:31.622Z,33
2023-02-11T01:06:31.535Z,29
2023-02-11T01:07:31.539Z,30
2023-02-11T01:08:31.526Z,29
2023-02-11T01:10:31.528Z,30
2023-02-11T01:11:31.580Z,29
2023-02-11T01:12:32.586Z,34
2023-02-11T01:13:31.532Z,32
2023-02-11T01:14:31.528Z,34
2023-02-11T01:15:31.582Z,29
2023-02-11T01:16:31.581Z,28
2023-02-11T01:17:31.549Z,31
2023-02-11T01:18:31.538Z,28
2023-02-11T01:19:31.539Z,26
2023-02-11T01:20:31.540Z,28
2023-02-11T01:21:31.540Z,30
2023-02-11T01:22:31.533Z,28
2023-02-11T01:24:31.538Z,32
2023-02-11T01:25:31.555Z,27
2023-02-11T01:26:31.564Z,30
2023-02-11T01:27:31.560Z,29
2023-02-11T01:28:31.707Z,31
2023-02-11T01:29:31.550Z,30
2023-02-11T01:30:31.601Z,29
2023-02-11T01:31:31.661Z,32
2023-02-11T01:32:31.548Z,31
2023-02-11T01:33:31.549Z,30
2023-02-11T01:34:31.922Z,29
2023-02-11T01:35:31.540Z,26
2023-02-11T01:36:31.610Z,30
2023-02-11T01:37:31.610Z,24
2023-02-11T01:38:31.544Z,28
2023-02-11T01:39:31.590Z,30
2023-02-11T01:40:31.611Z,28
2023-02-11T01:42:31.600Z,28
2023-02-11T01:43:31.601Z,28
2023-02-11T01:44:31.582Z,28
2023-02-11T01:45:31.664Z,26
2023-02-11T01:46:31.739Z,28
2023-02-11T01:47:31.599Z,26
2023-02-11T01:48:31.618Z,27
2023-02-11T01:49:31.666Z,29
2023-02-11T01:50:31.636Z,29
2023-02-11T01:51:31.617Z,27
2023-02-11T01:55:32.047Z,30
2023-02-11T01:57:31.686Z,28
2023-02-11T01:58:31.677Z,31
2023-02-11T01:59:31.663Z,28
2023-02-11T02:00:31.718Z,28
2023-02-11T02:01:31.690Z,26
2023-02-11T02:02:31.793Z,25
2023-02-11T02:03:31.681Z,29
2023-02-11T02:04:31.691Z,28
2023-02-11T02:05:31.688Z,26
2023-02-11T02:07:31.697Z,28
2023-02-11T02:08:31.671Z,22
2023-02-11T02:09:31.690Z,25
2023-02-11T02:10:31.663Z,25
2023-02-11T02:11:31.853Z,26
2023-02-11T02:12:45.996Z,26
2023-02-11T02:14:00.129Z,25
2023-02-11T02:17:42.521Z,25
2023-02-11T02:20:10.733Z,24
2023-02-11T02:20:47.807Z,25
2023-02-11T02:22:38.985Z,25
2023-02-11T02:23:53.096Z,25
2023-02-11T02:25:44.296Z,25
2023-02-11T02:26:58.428Z,23
2023-02-11T02:28:49.622Z,22
2023-02-11T02:30:40.816Z,26
2023-02-11T02:31:55.341Z,25
2023-02-11T02:34:30.002Z,25
2023-02-11T02:35:41.425Z,26
2023-02-11T02:36:31.552Z,26
2023-02-11T02:37:31.552Z,25
2023-02-11T02:38:31.576Z,22
2023-02-11T02:39:31.697Z,28
2023-02-11T02:40:31.554Z,27
2023-02-11T02:41:31.547Z,25
2023-02-11T02:42:31.559Z,24
2023-02-11T02:43:31.546Z,21
2023-02-11T02:45:31.549Z,23
2023-02-11T02:46:31.608Z,25
2023-02-11T02:47:31.702Z,23
2023-02-11T02:48:31.548Z,26
2023-02-11T02:50:31.548Z,24
2023-02-11T02:51:31.576Z,25
2023-02-11T02:52:31.571Z,27
2023-02-11T02:53:31.549Z,27
2023-02-11T02:54:31.573Z,24
2023-02-11T02:55:31.566Z,29
2023-02-11T02:56:31.554Z,29
2023-02-11T02:57:31.580Z,23
2023-02-11T02:58:31.570Z,26
2023-02-11T02:59:31.632Z,23
2023-02-11T03:00:31.623Z,24
2023-02-11T03:01:31.549Z,27
2023-02-11T03:02:31.564Z,26
2023-02-11T03:03:31.628Z,25
2023-02-11T03:04:31.587Z,26
2023-02-11T03:06:31.562Z,25
2023-02-11T03:07:31.550Z,24
2023-02-11T03:08:31.554Z,23
2023-02-11T03:09:31.565Z,22
2023-02-11T03:11:31.560Z,21
2023-02-11T03:12:31.654Z,23
2023-02-11T03:13:31.565Z,22
2023-02-11T03:14:31.557Z,22
2023-02-11T03:15:31.603Z,26
2023-02-11T03:16:31.662Z,28
2023-02-11T03:17:31.608Z,25
2023-02-11T03:18:31.606Z,24
2023-02-11T03:19:31.641Z,23
2023-02-11T03:20:31.617Z,22
2023-02-11T03:21:31.666Z,25
2023-02-11T03:22:31.613Z,25
2023-02-11T03:23:31.615Z,23
2023-02-11T03:25:31.691Z,29
2023-02-11T03:26:31.653Z,26
2023-02-11T03:27:31.603Z,24
2023-02-11T03:28:31.708Z,28
2023-02-11T03:29:31.637Z,26
2023-02-11T03:30:31.606Z,23
2023-02-11T03:31:31.833Z,24
2023-02-11T03:32:31.699Z,27
2023-02-11T03:33:31.766Z,24
2023-02-11T03:34:31.703Z,22
2023-02-11T03:35:31.711Z,22
2023-02-11T03:36:31.711Z,23
2023-02-11T03:37:31.698Z,23
2023-02-11T03:38:31.697Z,24
2023-02-11T03:39:31.693Z,22
2023-02-11T03:40:31.693Z,25
2023-02-11T03:41:31.721Z,21
2023-02-11T03:42:31.701Z,19
2023-02-11T03:43:31.695Z,24
2023-02-11T03:44:31.707Z,25
2023-02-11T03:46:31.720Z,22
2023-02-11T03:47:31.882Z,20
2023-02-11T03:48:46.014Z,22
2023-02-11T03:50:00.129Z,26
2023-02-11T03:53:42.516Z,23
2023-02-11T03:56:10.745Z,28
2023-02-11T03:56:47.818Z,26
2023-02-11T03:58:38.995Z,23
2023-02-11T04:01:44.308Z,27
2023-02-11T04:06:40.812Z,29
2023-02-11T04:11:37.704Z,25
2023-02-11T04:13:41.252Z,26
2023-02-11T04:14:31.576Z,26
2023-02-11T04:15:31.570Z,27
2023-02-11T04:16:31.636Z,32
2023-02-11T04:17:31.595Z,23
2023-02-11T04:18:31.576Z,24
2023-02-11T04:19:31.591Z,22
2023-02-11T04:21:31.568Z,25
2023-02-11T04:22:31.639Z,24
2023-02-11T04:23:31.586Z,25
2023-02-11T04:24:31.583Z,27
2023-02-11T04:25:31.649Z,29
2023-02-11T04:26:31.588Z,28
2023-02-11T04:27:31.572Z,25
2023-02-11T04:28:31.695Z,25
2023-02-11T04:29:31.611Z,28
2023-02-11T04:30:31.601Z,28
2023-02-11T04:31:31.638Z,27
2023-02-11T04:32:31.581Z,26
2023-02-11T04:33:31.589Z,28
2023-02-11T04:34:31.576Z,27
2023-02-11T04:35:31.576Z,27
2023-02-11T04:36:31.600Z,24
2023-02-11T04:37:31.583Z,23
2023-02-11T04:38:31.575Z,26
2023-02-11T04:39:31.584Z,26
2023-02-11T04:40:31.577Z,26
2023-02-11T04:41:31.583Z,28
2023-02-11T04:42:31.583Z,28
2023-02-11T04:43:31.573Z,25
2023-02-11T04:44:31.587Z,26
2023-02-11T04:45:31.579Z,22
2023-02-11T04:47:31.609Z,30
2023-02-11T04:49:31.580Z,26
2023-02-11T04:50:31.599Z,27
2023-02-11T04:51:31.587Z,32
2023-02-11T04:52:31.590Z,29
2023-02-11T04:53:31.590Z,26
2023-02-11T04:54:31.591Z,27
2023-02-11T04:55:31.582Z,33
2023-02-11T04:56:31.635Z,29
2023-02-11T04:57:31.639Z,25
2023-02-11T04:58:31.639Z,31
2023-02-11T04:59:31.630Z,29
2023-02-11T05:00:31.634Z,27
2023-02-11T05:01:31.694Z,27
2023-02-11T05:02:31.690Z,28
2023-02-11T05:03:31.639Z,30
2023-02-11T05:04:31.818Z,35
2023-02-11T05:05:31.641Z,26
2023-02-11T05:06:31.629Z,28
2023-02-11T05:07:31.631Z,33
2023-02-11T05:08:31.641Z,30
2023-02-11T05:09:31.641Z,25
2023-02-11T05:10:31.634Z,30
2023-02-11T05:11:31.722Z,28
2023-02-11T05:12:31.734Z,29
2023-02-11T05:13:31.715Z,28
2023-02-11T05:14:31.720Z,30
2023-02-11T05:15:31.738Z,28
2023-02-11T05:16:31.742Z,31
2023-02-11T05:18:31.718Z,28
2023-02-11T05:19:31.799Z,30
2023-02-11T05:20:31.715Z,29
2023-02-11T05:21:31.717Z,25
2023-02-11T05:23:31.721Z,33
2023-02-11T05:24:31.736Z,35
2023-02-11T05:25:31.770Z,28
2023-02-11T05:26:31.714Z,26
2023-02-11T05:27:31.938Z,31
2023-02-11T05:28:46.032Z,28
2023-02-11T05:30:00.220Z,35
2023-02-11T05:33:42.548Z,26
2023-02-11T05:36:10.773Z,31
2023-02-11T05:36:47.837Z,30
2023-02-11T05:38:39.040Z,30
2023-02-11T05:41:44.325Z,29
2023-02-11T05:45:33.184Z,31
2023-02-11T05:45:40.177Z,29
2023-02-11T05:46:31.684Z,37
2023-02-11T05:47:31.597Z,33
2023-02-11T05:48:31.632Z,31
2023-02-11T05:49:31.593Z,37
2023-02-11T05:50:31.604Z,37
2023-02-11T05:51:31.599Z,33
2023-02-11T05:52:31.617Z,34
2023-02-11T05:53:31.641Z,30
2023-02-11T05:54:31.608Z,35
2023-02-11T05:55:31.597Z,28
2023-02-11T05:56:31.595Z,29
2023-02-11T05:57:31.594Z,30
2023-02-11T05:58:31.596Z,27
2023-02-11T06:00:31.604Z,32
2023-02-11T06:01:31.592Z,30
2023-02-11T06:03:31.742Z,31
2023-02-11T06:04:31.594Z,33
2023-02-11T06:05:31.604Z,31
2023-02-11T06:06:31.603Z,30
2023-02-11T06:07:31.628Z,33
2023-02-11T06:08:31.603Z,32
2023-02-11T06:09:31.606Z,38
2023-02-11T06:10:31.609Z,32
2023-02-11T06:11:31.596Z,31
2023-02-11T06:12:31.634Z,29
2023-02-11T06:13:31.596Z,35
2023-02-11T06:14:31.615Z,37
2023-02-11T06:15:31.644Z,31
2023-02-11T06:16:31.750Z,33
2023-02-11T06:17:31.632Z,31
2023-02-11T06:18:31.605Z,34
2023-02-11T06:19:31.628Z,32
2023-02-11T06:20:31.644Z,34
2023-02-11T06:21:42.857Z,34
2023-02-11T06:22:31.614Z,40
2023-02-11T06:24:51.336Z,37
2023-02-11T06:25:31.612Z,34
2023-02-11T06:26:31.602Z,33
2023-02-11T06:27:31.616Z,38
2023-02-11T06:28:31.742Z,35
2023-02-11T06:29:31.650Z,33
2023-02-11T06:30:31.663Z,35
2023-02-11T06:31:31.726Z,41
2023-02-11T06:32:45.645Z,41
2023-02-11T06:33:31.676Z,35
2023-02-11T06:34:31.656Z,35
2023-02-11T06:35:31.655Z,38
2023-02-11T06:36:31.651Z,41
2023-02-11T06:37:31.652Z,36
2023-02-11T06:38:31.680Z,37
2023-02-11T06:39:31.665Z,41
2023-02-11T06:40:31.661Z,39
2023-02-11T06:41:31.653Z,39
2023-02-11T06:46:31.789Z,37
2023-02-11T06:47:31.741Z,38
2023-02-11T06:48:31.762Z,42
2023-02-11T06:49:31.787Z,42
2023-02-11T06:50:31.745Z,41
2023-02-11T06:51:31.743Z,40
2023-02-11T06:53:31.737Z,41
2023-02-11T06:54:31.756Z,44
2023-02-11T06:56:31.786Z,39
2023-02-11T06:57:31.746Z,36
2023-02-11T06:58:31.749Z,42
2023-02-11T06:59:31.751Z,40
2023-02-11T07:00:31.942Z,41
2023-02-11T07:03:00.280Z,40
2023-02-11T07:06:42.575Z,38
2023-02-11T07:07:56.685Z,40
2023-02-11T07:09:10.802Z,39
2023-02-11T07:09:47.883Z,38
2023-02-11T07:11:39.052Z,44
2023-02-11T07:12:53.175Z,44
2023-02-11T07:14:44.369Z,48
2023-02-11T07:15:58.505Z,36
2023-02-11T07:17:49.669Z,46
2023-02-11T07:19:40.866Z,45
2023-02-11T07:20:55.385Z,48
2023-02-11T07:22:43.554Z,39
2023-02-11T07:23:33.103Z,41
2023-02-11T07:24:31.620Z,44
2023-02-11T07:25:31.623Z,36
2023-02-11T07:26:31.620Z,35
2023-02-11T07:27:31.617Z,39
2023-02-11T07:28:31.711Z,41
2023-02-11T07:29:31.627Z,39
2023-02-11T07:30:31.625Z,41
2023-02-11T07:31:31.840Z,41
2023-02-11T07:32:31.621Z,39
2023-02-11T07:33:31.615Z,35
2023-02-11T07:34:31.678Z,42
2023-02-11T07:35:31.624Z,34
2023-02-11T07:36:31.638Z,41
2023-02-11T07:38:31.617Z,37
2023-02-11T07:39:31.614Z,42
2023-02-11T07:40:31.618Z,39
2023-02-11T07:41:31.613Z,34
2023-02-11T07:42:31.619Z,41
2023-02-11T07:43:31.628Z,39
2023-02-11T07:44:31.616Z,36
2023-02-11T07:45:31.777Z,35
2023-02-11T07:46:31.699Z,39
2023-02-11T07:47:31.623Z,40
2023-02-11T07:48:31.614Z,35
2023-02-11T07:49:31.616Z,41
2023-02-11T07:50:31.625Z,39
2023-02-11T07:51:31.625Z,36
2023-02-11T07:52:31.622Z,42
2023-02-11T07:53:31.615Z,40
2023-02-11T07:54:31.637Z,38
2023-02-11T07:56:31.623Z,38
2023-02-11T07:57:31.619Z,39
2023-02-11T07:59:31.620Z,42
2023-02-11T08:00:31.669Z,43
2023-02-11T08:01:31.639Z,42
2023-02-11T08:02:31.753Z,39
2023-02-11T08:03:31.627Z,41
2023-02-11T08:04:31.675Z,41
2023-02-11T08:05:31.702Z,44
2023-02-11T08:06:31.717Z,41
2023-02-11T08:07:31.664Z,40
2023-02-11T08:08:31.671Z,39
2023-02-11T08:09:34.182Z,45
2023-02-11T08:10:31.682Z,39
2023-02-11T08:11:31.675Z,40
2023-02-11T08:12:31.684Z,41
2023-02-11T08:13:31.683Z,40
2023-02-11T08:14:31.673Z,42
2023-02-11T08:15:31.671Z,43
2023-02-11T08:16:31.756Z,35
2023-02-11T08:17:31.687Z,43
2023-02-11T08:18:31.682Z,39
2023-02-11T08:20:31.758Z,38
2023-02-11T08:21:31.753Z,39
2023-02-11T08:22:31.764Z,41
2023-02-11T08:23:31.761Z,40
2023-02-11T08:24:31.764Z,40
2023-02-11T08:25:31.770Z,43
2023-02-11T08:26:31.788Z,42
2023-02-11T08:27:31.754Z,43
2023-02-11T08:28:31.859Z,43
2023-02-11T08:29:31.811Z,43
2023-02-11T08:30:31.757Z,40
2023-02-11T08:31:31.845Z,41
2023-02-11T08:32:31.766Z,41
2023-02-11T08:33:31.761Z,39
2023-02-11T08:34:33.413Z,42
2023-02-11T08:35:31.938Z,40
2023-02-11T08:36:46.070Z,38
2023-02-11T08:38:00.204Z,40
2023-02-11T08:41:42.590Z,40
2023-02-11T08:44:10.809Z,47
2023-02-11T08:49:44.370Z,43
2023-02-11T08:57:30.438Z,43
2023-02-11T08:57:51.003Z,39
2023-02-11T09:00:31.686Z,44
2023-02-11T09:01:31.804Z,38
2023-02-11T09:02:31.755Z,41
2023-02-11T09:03:31.687Z,38
2023-02-11T09:04:31.698Z,42
2023-02-11T09:05:32.537Z,41
2023-02-11T09:06:31.717Z,40
2023-02-11T09:07:31.695Z,43
2023-02-11T09:08:31.724Z,44
2023-02-11T09:09:31.707Z,42
2023-02-11T09:10:31.753Z,54
2023-02-11T09:11:31.691Z,41
2023-02-11T09:12:31.699Z,42
2023-02-11T09:13:31.686Z,49
2023-02-11T09:14:31.695Z,47
2023-02-11T09:16:31.828Z,45
2023-02-11T09:17:31.683Z,46
2023-02-11T09:18:31.685Z,43
2023-02-11T09:19:32.013Z,49
2023-02-11T09:21:31.695Z,45
2023-02-11T09:22:31.686Z,45
2023-02-11T09:23:31.684Z,40
2023-02-11T09:24:31.747Z,45
2023-02-11T09:25:31.691Z,42
2023-02-11T09:26:31.693Z,43
2023-02-11T09:27:31.704Z,47
2023-02-11T09:28:31.742Z,46
2023-02-11T09:29:31.747Z,43
2023-02-11T09:30:31.823Z,44
2023-02-11T09:32:31.697Z,47
2023-02-11T09:33:31.694Z,47
2023-02-11T09:34:31.689Z,45
2023-02-11T09:35:31.692Z,51
2023-02-11T09:36:31.694Z,40
2023-02-11T09:37:31.711Z,51
2023-02-11T09:38:31.925Z,46
2023-02-11T09:39:31.731Z,46
2023-02-11T09:40:31.771Z,49
2023-02-11T09:42:31.785Z,47
2023-02-11T09:43:31.782Z,42
2023-02-11T09:44:31.791Z,50
2023-02-11T09:45:31.789Z,44
2023-02-11T09:46:31.899Z,42
2023-02-11T09:48:31.784Z,43
2023-02-11T09:49:31.779Z,47
2023-02-11T09:50:31.779Z,44
2023-02-11T09:51:31.783Z,50
2023-02-11T09:52:31.783Z,41
2023-02-11T09:53:31.791Z,41
2023-02-11T09:54:31.776Z,49
2023-02-11T09:55:31.792Z,45
2023-02-11T09:56:31.967Z,40
2023-02-11T09:57:46.093Z,42
2023-02-11T09:59:00.225Z,40
2023-02-11T10:00:31.649Z,42
2023-02-11T10:01:31.866Z,44
2023-02-11T10:03:31.665Z,43
2023-02-11T10:04:31.765Z,49
2023-02-11T10:05:31.699Z,46
2023-02-11T10:06:31.660Z,41
2023-02-11T10:07:31.676Z,44
2023-02-11T10:08:31.666Z,43
2023-02-11T10:09:31.652Z,38
2023-02-11T10:10:31.679Z,43
2023-02-11T10:11:32.447Z,42
2023-02-11T10:13:31.653Z,41
2023-02-11T10:14:31.660Z,40
2023-02-11T10:15:31.739Z,43
2023-02-11T10:16:31.669Z,44
2023-02-11T10:17:31.706Z,46
2023-02-11T10:18:31.659Z,44
2023-02-11T10:19:31.664Z,40
2023-02-11T10:20:31.657Z,44
2023-02-11T10:21:31.658Z,41
2023-02-11T10:22:31.687Z,43
2023-02-11T10:24:31.671Z,40
2023-02-11T10:25:31.670Z,43
2023-02-11T10:27:31.662Z,45
2023-02-11T10:28:31.787Z,45
2023-02-11T10:29:31.671Z,38
2023-02-11T10:30:31.721Z,41
2023-02-11T10:31:32.530Z,43
2023-02-11T10:32:31.666Z,40
2023-02-11T10:35:31.657Z,47
2023-02-11T10:36:31.662Z,43
2023-02-11T10:37:31.663Z,43
2023-02-11T10:38:31.663Z,44
2023-02-11T10:39:31.668Z,42
2023-02-11T10:40:31.670Z,39
2023-02-11T10:41:31.678Z,40
2023-02-11T10:42:31.685Z,44
2023-02-11T10:43:31.672Z,41
2023-02-11T10:44:31.668Z,43
2023-02-11T10:45:31.687Z,43
2023-02-11T10:46:31.734Z,41
2023-02-11T10:47:31.710Z,48
2023-02-11T10:48:31.727Z,45
2023-02-11T10:49:31.716Z,45
2023-02-11T10:50:31.717Z,49
2023-02-11T10:51:31.713Z,45
2023-02-11T10:52:31.753Z,47
2023-02-11T10:53:31.714Z,46
2023-02-11T10:54:31.717Z,47
2023-02-11T10:56:31.716Z,41
2023-02-11T10:57:31.723Z,39
2023-02-11T10:58:31.725Z,42
2023-02-11T10:59:31.726Z,45
2023-02-11T11:00:31.725Z,42
2023-02-11T11:01:31.797Z,45
2023-02-11T11:02:31.725Z,41
2023-02-11T11:03:31.804Z,48
2023-02-11T11:04:31.822Z,43
2023-02-11T11:06:31.803Z,49
2023-02-11T11:07:31.805Z,45
2023-02-11T11:08:31.814Z,41
2023-02-11T11:09:31.806Z,43
2023-02-11T11:10:31.799Z,42
2023-02-11T11:11:31.804Z,43
2023-02-11T11:12:31.813Z,44
2023-02-11T11:13:31.836Z,48
2023-02-11T11:14:31.807Z,44
2023-02-11T11:17:31.827Z,46
2023-02-11T11:18:31.816Z,48
2023-02-11T11:19:31.995Z,46
2023-02-11T11:20:46.120Z,47
2023-02-11T11:21:59.932Z,43
2023-02-11T11:22:31.702Z,44
2023-02-11T11:23:31.679Z,43
2023-02-11T11:24:31.690Z,44
2023-02-11T11:25:31.674Z,48
2023-02-11T11:26:31.680Z,43
2023-02-11T11:27:31.712Z,47
2023-02-11T11:28:31.722Z,48
2023-02-11T11:29:31.680Z,44
2023-02-11T11:30:31.710Z,46
2023-02-11T11:31:31.862Z,47
2023-02-11T11:32:31.682Z,46
2023-02-11T11:33:31.680Z,46
2023-02-11T11:34:31.710Z,46
2023-02-11T11:36:31.689Z,43
2023-02-11T11:37:31.688Z,45
2023-02-11T11:38:31.699Z,50
2023-02-11T11:39:31.699Z,46
2023-02-11T11:40:31.690Z,46
2023-02-11T11:41:31.693Z,45
2023-02-11T11:42:31.696Z,47
2023-02-11T11:43:31.681Z,45
2023-02-11T11:44:31.701Z,46
2023-02-11T11:45:31.673Z,48
2023-02-11T11:46:31.755Z,47
2023-02-11T11:48:31.688Z,47
2023-02-11T11:49:31.687Z,47
2023-02-11T11:50:31.680Z,52
2023-02-11T11:51:31.692Z,46
2023-02-11T11:52:31.707Z,45
2023-02-11T11:53:31.680Z,44
2023-02-11T11:54:31.689Z,46
2023-02-11T11:55:31.676Z,45
2023-02-11T11:57:31.685Z,46
2023-02-11T11:58:31.707Z,47
2023-02-11T11:59:31.696Z,47
2023-02-11T12:00:31.682Z,47
2023-02-11T12:01:31.722Z,46
2023-02-11T12:02:31.689Z,45
2023-02-11T12:03:31.688Z,50
2023-02-11T12:04:31.694Z,44
2023-02-11T12:05:31.687Z,48
2023-02-11T12:06:31.692Z,54
2023-02-11T12:07:31.679Z,48
2023-02-11T12:08:31.684Z,50
2023-02-11T12:09:31.789Z,51
2023-02-11T12:10:31.749Z,47
2023-02-11T12:11:31.731Z,45
2023-02-11T12:12:31.741Z,45
2023-02-11T12:13:31.729Z,49
2023-02-11T12:14:31.785Z,50
2023-02-11T12:15:31.739Z,48
2023-02-11T12:16:31.783Z,49
2023-02-11T12:17:31.754Z,47
2023-02-11T12:18:31.738Z,46
2023-02-11T12:20:31.738Z,49
2023-02-11T12:21:31.735Z,50
2023-02-11T12:22:31.731Z,47
2023-02-11T12:23:31.742Z,50
2023-02-11T12:24:31.737Z,49
2023-02-11T12:25:31.813Z,49
2023-02-11T12:26:32.094Z,47
2023-02-11T12:27:31.825Z,51
2023-02-11T12:28:31.904Z,46
2023-02-11T12:29:31.814Z,45
2023-02-11T12:31:31.950Z,42
2023-02-11T12:32:31.834Z,49
2023-02-11T12:33:31.857Z,47
2023-02-11T12:34:31.818Z,46
2023-02-11T12:35:31.829Z,46
2023-02-11T12:36:31.829Z,49
2023-02-11T12:37:31.845Z,50
2023-02-11T12:39:31.855Z,50
2023-02-11T12:40:31.823Z,48
2023-02-11T12:41:32.012Z,43
2023-02-11T12:42:46.129Z,49
2023-02-11T12:44:00.284Z,50
2023-02-11T12:45:31.719Z,48
2023-02-11T12:46:31.716Z,46
2023-02-11T12:47:31.725Z,48
2023-02-11T12:48:34.101Z,50
2023-02-11T12:49:31.724Z,49
2023-02-11T12:50:31.730Z,45
2023-02-11T12:52:31.726Z,45
2023-02-11T12:53:31.742Z,45
2023-02-11T12:54:31.732Z,51
2023-02-11T12:55:31.700Z,43
2023-02-11T12:56:31.714Z,46
2023-02-11T12:57:31.742Z,44
2023-02-11T12:58:44.090Z,50
2023-02-11T12:59:31.724Z,52
2023-02-11T13:00:31.708Z,49
2023-02-11T13:01:31.764Z,44
2023-02-11T13:02:31.854Z,44
2023-02-11T13:03:31.713Z,48
2023-02-11T13:04:31.705Z,51
2023-02-11T13:05:31.708Z,45
2023-02-11T13:06:31.748Z,47
2023-02-11T13:07:31.710Z,44
2023-02-11T13:09:31.720Z,49
2023-02-11T13:10:31.713Z,45
2023-02-11T13:11:31.712Z,51
2023-02-11T13:13:31.711Z,48
2023-02-11T13:14:31.714Z,45
2023-02-11T13:15:31.725Z,50
2023-02-11T13:16:31.770Z,50
2023-02-11T13:17:31.723Z,44
2023-02-11T13:18:31.718Z,48
2023-02-11T13:19:31.742Z,48
2023-02-11T13:20:31.755Z,50
2023-02-11T13:21:31.750Z,42
2023-02-11T13:22:31.720Z,45
2023-02-11T13:23:31.812Z,45
2023-02-11T13:24:31.720Z,49
2023-02-11T13:25:31.711Z,46
2023-02-11T13:26:31.785Z,47
2023-02-11T13:27:31.718Z,49
2023-02-11T13:28:31.775Z,43
2023-02-11T13:29:31.712Z,48
2023-02-11T13:30:31.790Z,52
2023-02-11T13:32:31.810Z,44
2023-02-11T13:33:31.764Z,44
2023-02-11T13:34:31.774Z,51
2023-02-11T13:35:31.763Z,46
2023-02-11T13:36:31.771Z,49
2023-02-11T13:37:31.815Z,45
2023-02-11T13:38:31.778Z,45
2023-02-11T13:39:31.761Z,49
2023-02-11T13:40:31.757Z,43
2023-02-11T13:41:31.762Z,47
2023-02-11T13:42:31.852Z,47
2023-02-11T13:43:31.771Z,48
2023-02-11T13:44:31.761Z,43
2023-02-11T13:45:31.764Z,42
2023-02-11T13:46:31.764Z,43
2023-02-11T13:47:31.885Z,46
2023-02-11T13:48:31.845Z,43
2023-02-11T13:49:31.859Z,44
2023-02-11T13:50:31.856Z,47
2023-02-11T13:51:31.859Z,42
2023-02-11T13:53:31.862Z,42
2023-02-11T13:54:31.849Z,43
2023-02-11T13:55:31.860Z,38
2023-02-11T13:56:31.854Z,40
2023-02-11T13:57:31.844Z,38
2023-02-11T13:58:31.852Z,47
2023-02-11T13:59:31.861Z,36
2023-02-11T14:00:31.854Z,41
2023-02-11T14:01:31.897Z,42
2023-02-11T14:02:31.902Z,40
2023-02-11T14:03:32.122Z,43
2023-02-11T14:04:48.800Z,44
2023-02-11T14:06:00.334Z,43
2023-02-11T14:09:42.706Z,46
2023-02-11T14:10:56.825Z,40
2023-02-11T14:12:10.955Z,41
2023-02-11T14:12:48.015Z,43
2023-02-11T14:15:53.349Z,39
2023-02-11T14:17:44.511Z,38
2023-02-11T14:18:58.633Z,37
2023-02-11T14:20:50.194Z,38
2023-02-11T14:22:41.007Z,41
2023-02-11T14:23:55.514Z,39
2023-02-11T14:25:45.757Z,38
2023-02-11T14:26:36.682Z,37
2023-02-11T14:27:31.727Z,40
2023-02-11T14:28:31.819Z,34
2023-02-11T14:29:31.743Z,38
2023-02-11T14:30:31.808Z,39
2023-02-11T14:31:31.865Z,35
2023-02-11T14:32:31.736Z,35
2023-02-11T14:33:31.747Z,37
2023-02-11T14:35:31.764Z,34
2023-02-11T14:36:31.782Z,39
2023-02-11T14:37:31.762Z,35
2023-02-11T14:38:31.735Z,43
2023-02-11T14:39:31.752Z,43
2023-02-11T14:40:32.135Z,38
2023-02-11T14:41:31.746Z,38
2023-02-11T14:42:31.738Z,42
2023-02-11T14:43:31.734Z,46
2023-02-11T14:44:31.742Z,43
2023-02-11T14:45:31.753Z,43
2023-02-11T14:46:31.779Z,45
2023-02-11T14:47:31.729Z,46
2023-02-11T14:48:31.819Z,41
2023-02-11T14:49:31.746Z,43
2023-02-11T14:51:31.742Z,44
2023-02-11T14:52:31.752Z,38
2023-02-11T14:53:31.759Z,43
2023-02-11T14:54:31.741Z,43
2023-02-11T14:56:31.739Z,46
2023-02-11T14:57:31.740Z,41
2023-02-11T14:58:31.952Z,43
2023-02-11T14:59:31.749Z,45
2023-02-11T15:00:31.750Z,41
2023-02-11T15:01:31.874Z,42
2023-02-11T15:02:31.797Z,45
2023-02-11T15:03:31.743Z,47
2023-02-11T15:04:31.749Z,39
2023-02-11T15:05:31.748Z,42
2023-02-11T15:06:31.753Z,47
2023-02-11T15:07:31.750Z,39
2023-02-11T15:08:31.796Z,43
2023-02-11T15:09:31.797Z,37
2023-02-11T15:10:31.803Z,37
2023-02-11T15:11:31.800Z,40
2023-02-11T15:12:31.795Z,40
2023-02-11T15:13:31.803Z,39
2023-02-11T15:14:31.792Z,47
2023-02-11T15:15:31.843Z,40
2023-02-11T15:17:31.806Z,40
2023-02-11T15:18:31.795Z,41
2023-02-11T15:19:34.346Z,43
2023-02-11T15:20:31.897Z,40
2023-02-11T15:21:31.810Z,43
2023-02-11T15:22:31.803Z,47
2023-02-11T15:23:31.800Z,42
2023-02-11T15:24:31.916Z,44
2023-02-11T15:25:34.146Z,41
2023-02-11T15:26:31.877Z,42
2023-02-11T15:27:31.883Z,43
2023-02-11T15:28:32.080Z,43
2023-02-11T15:29:31.888Z,40
2023-02-11T15:30:31.939Z,44
2023-02-11T15:31:34.995Z,41
2023-02-11T15:32:31.979Z,45
2023-02-11T15:33:31.885Z,42
2023-02-11T15:34:31.891Z,45
2023-02-11T15:35:31.890Z,45
2023-02-11T15:36:31.884Z,44
2023-02-11T15:37:31.899Z,41
2023-02-11T15:38:31.928Z,43
2023-02-11T15:39:31.892Z,41
2023-02-11T15:40:31.890Z,47
2023-02-11T15:42:44.056Z,44
2023-02-11T15:43:47.722Z,43
2023-02-11T15:47:30.088Z,46
2023-02-11T15:48:44.215Z,41
2023-02-11T15:50:31.757Z,45
2023-02-11T15:51:31.764Z,40
2023-02-11T15:52:31.766Z,46
2023-02-11T15:53:31.763Z,42
2023-02-11T15:54:31.759Z,44
2023-02-11T15:55:31.761Z,42
2023-02-11T15:56:31.758Z,43
2023-02-11T15:57:31.781Z,41
2023-02-11T15:58:31.773Z,37
2023-02-11T15:59:31.777Z,39
2023-02-11T16:00:31.764Z,38
2023-02-11T16:01:33.811Z,41
2023-02-11T16:02:31.765Z,46
2023-02-11T16:03:31.784Z,43
2023-02-11T16:04:31.832Z,43
2023-02-11T16:05:31.793Z,41
2023-02-11T16:06:31.770Z,42
2023-02-11T16:07:31.765Z,40
2023-02-11T16:08:31.773Z,42
2023-02-11T16:10:31.772Z,43
2023-02-11T16:12:31.772Z,41
2023-02-11T16:13:31.771Z,44
2023-02-11T16:14:31.768Z,46
2023-02-11T16:15:31.766Z,41
2023-02-11T16:16:31.881Z,45
2023-02-11T16:17:31.760Z,44
2023-02-11T16:18:38.279Z,48
2023-02-11T16:19:31.765Z,46
2023-02-11T16:20:31.827Z,46
2023-02-11T16:21:31.775Z,41
2023-02-11T16:23:31.770Z,44
2023-02-11T16:25:31.761Z,41
2023-02-11T16:28:31.818Z,50
2023-02-11T16:32:31.774Z,44
2023-02-11T16:33:31.775Z,47
2023-02-11T16:34:31.936Z,45
2023-02-11T16:35:31.885Z,47
2023-02-11T16:36:31.882Z,44
2023-02-11T16:37:31.821Z,46
2023-02-11T16:38:31.822Z,49
2023-02-11T16:39:31.828Z,46
2023-02-11T16:40:31.829Z,51
2023-02-11T16:42:31.829Z,49
2023-02-11T16:43:31.824Z,47
2023-02-11T16:44:31.825Z,46
2023-02-11T16:45:31.840Z,46
2023-02-11T16:46:31.924Z,52
2023-02-11T16:47:31.818Z,47
2023-02-11T16:48:31.819Z,49
2023-02-11T16:50:31.822Z,50
2023-02-11T16:51:31.916Z,49
2023-02-11T16:52:31.905Z,49
2023-02-11T16:53:31.909Z,48
2023-02-11T16:54:31.909Z,48
2023-02-11T16:55:32.712Z,47
2023-02-11T16:56:31.909Z,46